Overview Statistics Trail Chart Weather Telemetry Raw packets
 

This is the latest recevied weather packets stored in our database for station/object KG5VSR. If no packets are shown the sender has not sent any weather packets the latest 10 day(s).

<< 1 2 3 4 >>
Time Temp. Humidity Pressure Rain* Wind** Luminosity Snow
1788677261 27.78° C 85% 1013 hPa 0 mm - 0 W/m² -
1788675460 27.78° C 83% 1013.2 hPa 0 mm - 0 W/m² -
1788673658 28.33° C 81% 1013.6 hPa 0 mm - 0 W/m² -
1788671857 28.33° C 78% 1013.4 hPa 0 mm - 0 W/m² -
1788670054 28.89° C 76% 1013.1 hPa 0 mm - 0 W/m² -
1788668253 29.44° C 74% 1013.2 hPa 0 mm - 0 W/m² -
1788666454 29.44° C 74% 1013.3 hPa 0 mm - 0 W/m² -
1788664653 30° C 73% 1013.4 hPa 0 mm - 0 W/m² -
1788662848 30° C 72% 1013.4 hPa 0 mm - 0 W/m² -
1788661049 30.56° C 69% 1013 hPa 0 mm - 0 W/m² -
1788659248 31.11° C 66% 1012.6 hPa 0 mm - 0 W/m² -
1788657449 31.11° C 65% 1011.8 hPa 0 mm - 0 W/m² -
1788655645 32.78° C 62% 1012.1 hPa 0 mm - 2 W/m² -
1788653844 34.44° C 55% 1011.4 hPa 0 mm - 16 W/m² -
1788652042 36.11° C 48% 1011.1 hPa 0 mm - 32 W/m² -
1788650241 36.67° C 47% 1011 hPa 0 mm - 49 W/m² -
1788648436 37.78° C 46% 1010.8 hPa 0 mm - 199 W/m² -
1788646633 37.22° C 46% 1010.8 hPa 0 mm - 312 W/m² -
1788644829 36.67° C 47% 1011.1 hPa 0 mm - 98 W/m² -
1788643028 37.78° C 46% 1011.1 hPa 0 mm - 530 W/m² -
1788641224 38.33° C 44% 1011.7 hPa 0 mm - 621 W/m² -
1788639424 36.67° C 47% 1012.1 hPa 0 mm - 622 W/m² -
1788637622 36.67° C 47% 1012.6 hPa 0 mm - 293 W/m² -
1788635820 37.78° C 45% 1013.2 hPa 0 mm - 652 W/m² -
1788634015 37.22° C 46% 1013.6 hPa 0 mm - 771 W/m² -

* Rain latest hour (hover to see other rain measurements)
** Current wind speed in m/s (hover to see current wind gust speed)